createdAt,value
2023-05-13T00:01:10.769Z,44.15
2023-05-13T00:03:38.129Z,44.16
2023-05-13T00:06:04.949Z,44.16
2023-05-13T00:08:31.667Z,43.92
2023-05-13T00:10:58.272Z,43.90
2023-05-13T00:13:24.907Z,44.18
2023-05-13T00:15:51.481Z,44.11
2023-05-13T00:18:18.297Z,44.19
2023-05-13T00:20:45.041Z,43.99
2023-05-13T00:23:11.711Z,44.30
2023-05-13T00:25:38.440Z,44.27
2023-05-13T00:28:05.154Z,44.31
2023-05-13T00:30:31.716Z,44.52
2023-05-13T00:32:58.685Z,44.55
2023-05-13T00:35:25.435Z,45.26
2023-05-13T00:37:52.116Z,44.96
2023-05-13T00:40:23.869Z,45.25
2023-05-13T00:42:51.562Z,44.78
2023-05-13T00:45:18.570Z,45.02
2023-05-13T00:47:45.600Z,44.95
2023-05-13T00:50:13.575Z,45.08
2023-05-13T00:52:41.522Z,44.96
2023-05-13T00:55:09.546Z,44.92
2023-05-13T00:57:37.223Z,45.19
2023-05-13T01:00:05.857Z,45.63
2023-05-13T01:02:39.218Z,45.16
2023-05-13T01:05:38.350Z,45.42
2023-05-13T01:08:36.814Z,45.48
2023-05-13T01:11:03.418Z,45.38
2023-05-13T01:13:39.813Z,46.15
2023-05-13T01:16:06.596Z,45.43
2023-05-13T01:18:52.511Z,45.74
2023-05-13T01:21:26.929Z,46.31
2023-05-13T01:23:53.684Z,45.76
2023-05-13T01:26:22.375Z,45.81
2023-05-13T01:28:49.387Z,45.49
2023-05-13T01:31:16.194Z,45.65
2023-05-13T01:33:43.788Z,45.79
2023-05-13T01:36:10.571Z,45.75
2023-05-13T01:38:38.072Z,46.04
2023-05-13T01:41:04.766Z,45.83
2023-05-13T01:43:31.444Z,46.07
2023-05-13T01:46:00.638Z,46.15
2023-05-13T01:48:27.368Z,46.18
2023-05-13T01:50:55.122Z,46.19
2023-05-13T01:53:21.627Z,46.68
2023-05-13T01:55:48.105Z,46.60
2023-05-13T01:58:14.690Z,46.76
2023-05-13T02:00:41.293Z,46.71
2023-05-13T02:03:07.991Z,46.56
2023-05-13T02:05:34.713Z,47.09
2023-05-13T02:08:01.256Z,47.05
2023-05-13T02:10:27.873Z,47.19
2023-05-13T02:12:54.426Z,47.23
2023-05-13T02:15:21.086Z,47.49
2023-05-13T02:17:47.637Z,47.72
2023-05-13T02:20:14.755Z,47.57
2023-05-13T02:22:41.184Z,47.47
2023-05-13T02:25:08.329Z,47.40
2023-05-13T02:27:34.928Z,47.25
2023-05-13T02:30:01.506Z,47.28
2023-05-13T02:32:28.188Z,47.41
2023-05-13T02:34:54.761Z,47.40
2023-05-13T02:37:21.363Z,47.48
2023-05-13T02:39:47.874Z,47.48
2023-05-13T02:42:14.397Z,47.67
2023-05-13T02:44:41.461Z,47.71
2023-05-13T02:47:08.040Z,47.86
2023-05-13T02:49:34.618Z,47.62
2023-05-13T02:52:01.177Z,47.97
2023-05-13T02:54:28.243Z,47.72
2023-05-13T02:56:54.786Z,47.78
2023-05-13T02:59:21.328Z,47.98
2023-05-13T03:01:47.994Z,48.09
2023-05-13T03:04:14.682Z,48.11
2023-05-13T03:06:41.242Z,48.05
2023-05-13T03:09:07.772Z,48.27
2023-05-13T03:11:36.735Z,48.46
2023-05-13T03:14:03.339Z,48.20
2023-05-13T03:16:29.951Z,48.08
2023-05-13T03:18:56.584Z,48.00
2023-05-13T03:21:23.127Z,48.08
2023-05-13T03:23:49.719Z,48.17
2023-05-13T03:26:16.693Z,48.33
2023-05-13T03:28:43.350Z,48.26
2023-05-13T03:31:09.863Z,48.44
2023-05-13T03:33:36.529Z,48.34
2023-05-13T03:36:03.152Z,48.46
2023-05-13T03:38:29.648Z,48.31
2023-05-13T03:40:56.188Z,48.45
2023-05-13T03:43:22.857Z,48.45
2023-05-13T03:45:50.762Z,48.51
2023-05-13T03:48:17.717Z,48.57
2023-05-13T03:50:44.487Z,48.68
2023-05-13T03:53:11.928Z,48.69
2023-05-13T03:55:38.600Z,48.65
2023-05-13T03:58:15.561Z,49.26
2023-05-13T04:00:43.468Z,48.95
2023-05-13T04:03:10.460Z,48.99
2023-05-13T04:05:37.272Z,49.26
2023-05-13T04:08:04.001Z,49.18
2023-05-13T04:10:30.554Z,49.27
2023-05-13T04:12:57.041Z,49.34
2023-05-13T04:15:23.633Z,49.29
2023-05-13T04:17:51.103Z,49.30
2023-05-13T04:20:18.035Z,49.34
2023-05-13T04:22:44.541Z,49.23
2023-05-13T04:25:11.482Z,49.35
2023-05-13T04:27:37.916Z,49.43
2023-05-13T04:30:05.034Z,49.64
2023-05-13T04:32:31.919Z,49.76
2023-05-13T04:34:58.762Z,49.51
2023-05-13T04:37:25.556Z,49.47
2023-05-13T04:39:52.196Z,49.69
2023-05-13T04:42:18.735Z,49.53
2023-05-13T04:44:45.330Z,49.77
2023-05-13T04:47:11.973Z,49.78
2023-05-13T04:49:38.468Z,49.74
2023-05-13T04:52:06.493Z,49.73
2023-05-13T04:54:35.442Z,49.95
2023-05-13T04:57:02.740Z,49.82
2023-05-13T04:59:29.346Z,49.82
2023-05-13T05:01:56.211Z,49.96
2023-05-13T05:04:22.862Z,50.04
2023-05-13T05:06:49.440Z,49.99
2023-05-13T05:09:16.100Z,49.84
2023-05-13T05:11:42.646Z,50.00
2023-05-13T05:14:09.210Z,50.24
2023-05-13T05:16:35.876Z,50.39
2023-05-13T05:19:02.534Z,50.33
2023-05-13T05:21:29.170Z,50.37
2023-05-13T05:23:55.772Z,50.33
2023-05-13T05:26:22.370Z,50.19
2023-05-13T05:28:49.006Z,50.27
2023-05-13T05:31:15.637Z,49.97
2023-05-13T05:33:42.472Z,50.25
2023-05-13T05:36:09.152Z,50.21
2023-05-13T05:38:36.121Z,50.34
2023-05-13T05:41:02.760Z,50.08
2023-05-13T05:43:29.399Z,50.17
2023-05-13T05:45:56.021Z,50.32
2023-05-13T05:48:22.614Z,50.40
2023-05-13T05:50:49.367Z,50.58
2023-05-13T05:53:15.983Z,50.55
2023-05-13T05:55:42.637Z,50.38
2023-05-13T05:58:10.186Z,50.76
2023-05-13T06:00:36.759Z,50.76
2023-05-13T06:03:03.489Z,50.55
2023-05-13T06:05:30.243Z,50.93
2023-05-13T06:07:56.961Z,50.61
2023-05-13T06:10:23.858Z,50.70
2023-05-13T06:12:51.413Z,51.18
2023-05-13T06:15:17.956Z,51.18
2023-05-13T06:17:44.555Z,50.78
2023-05-13T06:20:11.693Z,50.73
2023-05-13T06:22:38.306Z,50.68
2023-05-13T06:25:05.533Z,50.36
2023-05-13T06:30:01.465Z,50.26
2023-05-13T06:32:27.993Z,49.99
2023-05-13T06:34:55.953Z,50.05
2023-05-13T06:37:22.756Z,50.07
2023-05-13T06:39:49.548Z,50.35
2023-05-13T06:42:16.130Z,50.60
2023-05-13T06:44:42.545Z,50.45
2023-05-13T06:47:11.910Z,50.40
2023-05-13T06:49:38.472Z,50.33
2023-05-13T06:52:05.280Z,50.50
2023-05-13T06:54:32.061Z,50.42
2023-05-13T06:56:58.601Z,50.40
2023-05-13T06:59:25.322Z,50.62
2023-05-13T07:01:51.884Z,50.53
2023-05-13T07:04:18.403Z,50.58
2023-05-13T07:06:44.974Z,50.61
2023-05-13T07:09:11.505Z,50.78
2023-05-13T07:11:38.029Z,50.77
2023-05-13T07:14:04.576Z,50.46
2023-05-13T07:16:31.031Z,50.66
2023-05-13T07:18:57.655Z,50.73
2023-05-13T07:21:24.188Z,50.66
2023-05-13T07:23:50.739Z,50.89
2023-05-13T07:26:17.255Z,50.69
2023-05-13T07:28:43.792Z,50.77
2023-05-13T07:31:10.457Z,50.46
2023-05-13T07:33:37.111Z,50.53
2023-05-13T07:36:03.915Z,50.60
2023-05-13T07:38:30.360Z,50.81
2023-05-13T07:40:56.887Z,50.46
2023-05-13T07:43:27.823Z,50.55
2023-05-13T07:45:54.415Z,49.75
2023-05-13T07:48:20.910Z,50.01
2023-05-13T07:50:47.717Z,49.79
2023-05-13T07:53:14.321Z,49.94
2023-05-13T07:55:41.389Z,49.61
2023-05-13T07:58:07.802Z,49.29
2023-05-13T08:00:34.291Z,49.67
2023-05-13T08:03:00.910Z,49.87
2023-05-13T08:05:27.564Z,49.59
2023-05-13T08:07:54.052Z,49.72
2023-05-13T08:10:21.127Z,49.69
2023-05-13T08:12:52.110Z,49.18
2023-05-13T08:15:19.162Z,49.57
2023-05-13T08:17:45.765Z,49.66
2023-05-13T08:20:12.448Z,49.09
2023-05-13T08:22:38.928Z,49.09
2023-05-13T08:25:05.902Z,49.17
2023-05-13T08:27:32.441Z,48.46
2023-05-13T08:29:58.949Z,48.67
2023-05-13T08:32:25.575Z,48.06
2023-05-13T08:34:52.161Z,48.05
2023-05-13T08:37:18.731Z,47.79
2023-05-13T08:39:45.734Z,48.09
2023-05-13T08:42:15.144Z,48.29
2023-05-13T08:44:43.711Z,48.02
2023-05-13T08:47:44.073Z,48.53
2023-05-13T08:50:12.549Z,47.86
2023-05-13T08:52:39.868Z,48.20
2023-05-13T08:55:08.179Z,48.00
2023-05-13T08:57:34.700Z,47.45
2023-05-13T09:00:01.334Z,47.74
2023-05-13T09:02:27.927Z,47.62
2023-05-13T09:04:56.103Z,47.65
2023-05-13T09:07:22.758Z,47.29
2023-05-13T09:09:49.896Z,47.92
2023-05-13T09:12:58.267Z,47.17
2023-05-13T09:15:26.552Z,46.90
2023-05-13T09:18:11.593Z,47.31
2023-05-13T09:20:38.531Z,47.62
2023-05-13T09:23:10.738Z,46.39
2023-05-13T09:25:38.556Z,46.76
2023-05-13T09:28:07.723Z,46.47
2023-05-13T09:30:40.240Z,46.03
2023-05-13T09:33:09.462Z,46.08
2023-05-13T09:35:38.059Z,46.31
2023-05-13T09:38:14.725Z,46.48
2023-05-13T09:40:42.111Z,46.84
2023-05-13T09:43:08.687Z,45.68
2023-05-13T09:45:36.319Z,46.63
2023-05-13T09:48:03.132Z,46.60
2023-05-13T09:50:31.582Z,45.57
2023-05-13T09:52:58.116Z,45.08
2023-05-13T09:55:24.596Z,44.86
2023-05-13T09:57:53.367Z,45.30
2023-05-13T10:00:29.240Z,44.43
2023-05-13T10:03:01.243Z,44.73
2023-05-13T10:05:27.882Z,44.87
2023-05-13T10:07:55.545Z,43.91
2023-05-13T10:10:22.371Z,43.82
2023-05-13T10:12:50.623Z,43.43
2023-05-13T10:15:19.101Z,43.26
2023-05-13T10:17:46.986Z,43.87
2023-05-13T10:20:14.652Z,43.35
2023-05-13T10:22:41.909Z,43.26
2023-05-13T10:25:09.214Z,42.76
2023-05-13T10:27:35.840Z,42.73
2023-05-13T10:30:05.869Z,42.33
2023-05-13T10:32:32.562Z,41.71
2023-05-13T10:35:17.508Z,41.48
2023-05-13T10:38:02.834Z,41.82
2023-05-13T10:40:44.617Z,42.25
2023-05-13T10:43:32.765Z,41.85
2023-05-13T10:46:06.600Z,41.17
2023-05-13T10:48:43.539Z,40.89
2023-05-13T10:51:14.461Z,40.74
2023-05-13T10:53:47.895Z,40.52
2023-05-13T10:56:15.521Z,40.74
2023-05-13T10:58:42.308Z,39.97
2023-05-13T11:01:16.317Z,38.47
2023-05-13T11:03:52.328Z,38.22
2023-05-13T11:06:24.529Z,37.90
2023-05-13T11:08:55.756Z,37.32
2023-05-13T11:11:28.771Z,35.37
2023-05-13T11:13:55.137Z,38.55
2023-05-13T11:16:25.783Z,34.89
2023-05-13T11:18:53.209Z,34.19
2023-05-13T11:21:31.037Z,33.09
2023-05-13T11:23:58.601Z,32.98
2023-05-13T11:26:25.607Z,32.67
2023-05-13T11:28:57.741Z,30.75
2023-05-13T11:31:26.039Z,31.35
2023-05-13T11:34:12.100Z,31.83
2023-05-13T11:36:40.482Z,30.85
2023-05-13T11:39:14.362Z,30.36
2023-05-13T11:41:43.499Z,29.82
2023-05-13T11:44:11.825Z,29.89
2023-05-13T11:46:38.337Z,29.31
2023-05-13T11:49:07.257Z,29.19
2023-05-13T11:51:34.443Z,28.06
2023-05-13T11:54:04.565Z,27.30
2023-05-13T11:56:31.223Z,27.18
2023-05-13T11:59:14.678Z,28.03
2023-05-13T12:01:41.537Z,27.96
2023-05-13T12:04:08.664Z,28.69
2023-05-13T12:06:35.711Z,29.17
2023-05-13T12:09:06.759Z,28.54
2023-05-13T12:11:33.920Z,28.88
2023-05-13T12:14:01.154Z,29.09
2023-05-13T12:16:28.118Z,28.14
2023-05-13T12:19:06.867Z,27.69
2023-05-13T12:21:34.669Z,27.25
2023-05-13T12:24:01.253Z,27.96
2023-05-13T12:26:27.844Z,28.22
2023-05-13T12:31:24.376Z,26.75
2023-05-13T12:33:51.573Z,25.86
2023-05-13T12:36:20.680Z,24.93
2023-05-13T12:39:01.476Z,25.31
2023-05-13T12:41:36.180Z,24.89
2023-05-13T12:44:10.629Z,25.13
2023-05-13T12:46:37.581Z,25.57
2023-05-13T12:49:05.801Z,25.89
2023-05-13T12:51:35.642Z,26.26
2023-05-13T12:54:02.248Z,25.02
2023-05-13T12:56:28.664Z,24.53
2023-05-13T12:58:55.286Z,23.96
2023-05-13T13:01:22.385Z,24.07
2023-05-13T13:03:49.174Z,24.36
2023-05-13T13:06:15.896Z,25.18
2023-05-13T13:08:42.393Z,25.04
2023-05-13T13:11:09.315Z,25.24
2023-05-13T13:13:38.101Z,24.80
2023-05-13T13:16:06.180Z,24.46
2023-05-13T13:18:32.706Z,23.72
2023-05-13T13:20:59.167Z,24.22
2023-05-13T13:23:25.710Z,23.72
2023-05-13T13:25:52.202Z,23.85
2023-05-13T13:28:18.781Z,23.46
2023-05-13T13:30:48.429Z,23.16
2023-05-13T13:33:16.173Z,22.01
2023-05-13T13:35:44.445Z,22.20
2023-05-13T13:38:11.078Z,21.88
2023-05-13T13:40:37.543Z,21.22
2023-05-13T13:43:05.676Z,21.41
2023-05-13T13:45:32.266Z,21.22
2023-05-13T13:47:59.361Z,20.21
2023-05-13T13:50:26.213Z,19.63
2023-05-13T13:52:52.741Z,20.17
2023-05-13T13:55:23.277Z,20.54
2023-05-13T13:57:50.692Z,20.98
2023-05-13T14:00:17.351Z,20.04
2023-05-13T14:02:44.113Z,20.75
2023-05-13T14:05:11.593Z,21.25
2023-05-13T14:07:38.146Z,21.18
2023-05-13T14:10:05.915Z,20.63
2023-05-13T14:12:32.537Z,20.55
2023-05-13T14:14:59.762Z,20.86
2023-05-13T14:17:26.291Z,20.62
2023-05-13T14:19:55.049Z,20.57
2023-05-13T14:22:24.840Z,19.13
2023-05-13T14:24:52.294Z,19.74
2023-05-13T14:27:19.627Z,18.85
2023-05-13T14:29:47.577Z,18.64
2023-05-13T14:32:14.609Z,19.18
2023-05-13T14:34:41.236Z,19.77
2023-05-13T14:37:07.777Z,20.55
2023-05-13T14:39:34.508Z,21.44
2023-05-13T14:42:01.590Z,21.76
2023-05-13T14:44:28.226Z,21.41
2023-05-13T14:46:55.051Z,20.98
2023-05-13T14:49:21.656Z,20.58
2023-05-13T14:51:48.149Z,20.65
2023-05-13T14:54:14.572Z,19.65
2023-05-13T14:56:41.535Z,19.73
2023-05-13T14:59:08.275Z,19.84
2023-05-13T15:01:34.808Z,19.90
2023-05-13T15:04:01.502Z,20.46
2023-05-13T15:06:29.107Z,20.92
2023-05-13T15:08:56.437Z,21.41
2023-05-13T15:11:23.183Z,21.93
2023-05-13T15:13:49.732Z,22.01
2023-05-13T15:16:16.245Z,22.31
2023-05-13T15:18:42.925Z,23.22
2023-05-13T15:21:09.463Z,23.81
2023-05-13T15:23:35.984Z,24.48
2023-05-13T15:26:02.492Z,24.94
2023-05-13T15:28:29.157Z,25.19
2023-05-13T15:30:55.927Z,25.73
2023-05-13T15:33:22.405Z,26.33
2023-05-13T15:35:48.976Z,26.65
2023-05-13T15:38:15.402Z,27.19
2023-05-13T15:40:41.863Z,27.22
2023-05-13T15:43:08.331Z,26.42
2023-05-13T15:45:34.834Z,26.01
2023-05-13T15:48:01.253Z,25.71
2023-05-13T15:50:27.775Z,25.25
2023-05-13T15:52:54.722Z,25.03
2023-05-13T15:55:22.178Z,24.62
2023-05-13T15:57:50.300Z,24.29
2023-05-13T16:00:17.963Z,24.21
2023-05-13T16:02:44.667Z,23.74
2023-05-13T16:05:11.945Z,23.37
2023-05-13T16:07:38.432Z,23.08
2023-05-13T16:10:05.152Z,23.95
2023-05-13T16:12:31.588Z,23.78
2023-05-13T16:14:57.993Z,24.30
2023-05-13T16:17:24.469Z,25.18
2023-05-13T16:19:51.012Z,24.84
2023-05-13T16:22:29.065Z,25.34
2023-05-13T16:25:00.767Z,25.41
2023-05-13T16:27:28.279Z,25.96
2023-05-13T16:29:56.169Z,25.77
2023-05-13T16:32:22.992Z,25.57
2023-05-13T16:34:49.670Z,25.02
2023-05-13T16:37:16.218Z,25.13
2023-05-13T16:39:42.808Z,25.30
2023-05-13T16:42:09.578Z,24.90
2023-05-13T16:44:36.095Z,24.95
2023-05-13T16:47:02.819Z,24.99
2023-05-13T16:49:29.448Z,25.24
2023-05-13T16:51:55.959Z,25.08
2023-05-13T16:54:22.384Z,25.79
2023-05-13T16:56:50.417Z,26.06
2023-05-13T16:59:24.487Z,26.84
2023-05-13T17:01:52.358Z,27.37
2023-05-13T17:04:19.818Z,27.88
2023-05-13T17:06:46.394Z,28.66
2023-05-13T17:09:12.966Z,29.68
2023-05-13T17:11:39.586Z,30.46
2023-05-13T17:14:06.498Z,30.54
2023-05-13T17:16:33.472Z,30.84
2023-05-13T17:19:00.119Z,31.22
2023-05-13T17:21:26.809Z,32.23
2023-05-13T17:23:53.500Z,32.20
2023-05-13T17:26:21.695Z,32.35
2023-05-13T17:28:48.935Z,32.93
2023-05-13T17:31:15.503Z,33.47
2023-05-13T17:33:42.124Z,33.03
2023-05-13T17:36:08.749Z,33.60
2023-05-13T17:38:35.261Z,33.95
2023-05-13T17:41:01.865Z,33.50
2023-05-13T17:43:28.390Z,33.78
2023-05-13T17:45:54.850Z,34.08
2023-05-13T17:48:21.463Z,34.45
2023-05-13T17:50:48.013Z,34.75
2023-05-13T17:53:14.556Z,35.00
2023-05-13T17:55:41.065Z,34.90
2023-05-13T17:58:07.573Z,35.74
2023-05-13T18:00:34.076Z,35.79
2023-05-13T18:03:00.735Z,36.09
2023-05-13T18:05:27.597Z,36.13
2023-05-13T18:07:54.241Z,36.37
2023-05-13T18:10:21.193Z,36.24
2023-05-13T18:12:48.014Z,36.35
2023-05-13T18:15:14.636Z,36.07
2023-05-13T18:17:41.215Z,36.25
2023-05-13T18:20:08.354Z,36.33
2023-05-13T18:22:35.018Z,35.92
2023-05-13T18:25:01.563Z,35.84
2023-05-13T18:27:28.122Z,36.01
